首页
METAR-TAF:

METAR-TAF

机场 :

哈茨菲尔德-杰克逊亚特兰大国际机场

亚特兰大, 喬治亞, 美国

纬度: 33-38-25N, 经度: 084-25-37W, 海拔: 313米

当前天气观测

该预报发布于32分钟前的12:52 UTC
风速3节,风向西转西北
温度 27°C
湿度 48%
气压 1019 hPa
能見度: 16.1公里
少量云层高于6500英尺
散云层高于9000英尺

METAR: KATL 221252Z 30003KT 10SM FEW065 SCT090 27/15 A3010 RMK AO2 SLP179 T02720150

时间: 09:24 (13:24 UTC)

预报

该预报发布于1小时和52分钟前的11:32 UTC
预报有效从22日的 12点(UTC)到 23日的 18点(UTC)
风速3节,风向多变
能見度: 10公里
散云层高于6000英尺
散云层高于8000英尺
从 22日的 1500点(UTC)
风速5节,风向南转南东
能見度: 10公里
散云层高于4500英尺
散云层高于6000英尺
从 22日的 1800点(UTC)
风速8节,风向南转西南
能見度: 10公里
散云层高于5000英尺
从 23日的 0100点(UTC)
风速4节,风向南转南东
能見度: 10公里
少量云层高于5000英尺
从 23日的 1500点(UTC)
风速8节,风向
能見度: 10公里
散云层高于4000英尺

TAF: KATL 221132Z 2212/2318 VRB03KT P6SM SCT060 SCT080 FM221500 16005KT P6SM SCT045 SCT060 FM221800 20008KT P6SM SCT050 FM230100 15004KT P6SM FEW050 FM231500 19008KT P6SM SCT040

超过4000个机场的气象观测和天气预报(METAR&TAF报告)。

可查询的气象台以黄色和红色小点在地图上表示。

将鼠标移到小点上方,可查看气象台名称。

然后点击查看天气观测和预报。

如需切换地图:点击带黑十字的绿色按钮放大地图;点击带横线的绿色按钮缩小地图;或者点击绿色箭头查看邻近地区的地图。


METAR-TAF: